Time;durP1;ratioP1;P1;durP2;ratioP2;P2;SDS_P1;SDS_P2;PMS_P1;PMS_P2;Temp;Humidity;BMP_temperature;BMP_pressure;BME280_temperature;BME280_humidity;BME280_pressure;Samples;Min_cycle;Max_cycle;Signal;HPM_P1;HPM_P2
2022/02/22 15:49:09;;;;;;;;;0.00;0.00;;;;;;;;5077849;27;1453629;-79
2022/02/22 15:51:34;;;;;;;;;0.00;0.00;;;;;;;;5115725;27;20818;-76
2022/02/22 15:54:00;;;;;;;;;0.50;0.00;;;;;;;;5116212;27;11112;-82
2022/02/22 15:56:25;;;;;;;;;0.00;0.00;;;;;;;;5116110;28;8781;-78
2022/02/22 15:58:50;;;;;;;;;0.00;0.00;;;;;;;;5108257;27;8786;-73
2022/02/22 16:01:16;;;;;;;;;0.00;0.00;;;;;;;;5106291;28;8816;-76
2022/02/22 16:03:41;;;;;;;;;0.00;0.00;;;;;;;;5115749;27;8999;-74
2022/02/22 16:06:06;;;;;;;;;0.00;0.00;;;;;;;;5093269;27;8846;-76
2022/02/22 16:08:33;;;;;;;;;0.00;0.00;;;;;;;;5095098;28;8830;-75
2022/02/22 16:11:02;;;;;;;;;0.00;0.00;;;;;;;;5104569;28;8875;-74
2022/02/22 16:13:27;;;;;;;;;0.00;0.00;;;;;;;;5099679;28;11396;-75
2022/02/22 16:15:52;;;;;;;;;0.00;0.00;;;;;;;;5113070;27;11362;-75
2022/02/22 16:18:18;;;;;;;;;0.00;0.00;;;;;;;;5113799;27;8813;-76
2022/02/22 16:20:43;;;;;;;;;0.00;0.00;;;;;;;;5101469;28;8843;-74
2022/02/22 16:23:08;;;;;;;;;0.00;0.00;;;;;;;;5114145;28;8801;-75
2022/02/22 16:25:34;;;;;;;;;0.00;0.00;;;;;;;;5114507;27;8805;-75
2022/02/22 16:27:59;;;;;;;;;0.00;0.00;;;;;;;;5114403;27;8886;-78
2022/02/22 16:30:26;;;;;;;;;0.00;0.00;;;;;;;;5100315;28;8926;-75
2022/02/22 16:32:52;;;;;;;;;0.00;0.00;;;;;;;;5103413;27;8777;-73
2022/02/22 16:35:17;;;;;;;;;0.00;0.00;;;;;;;;5103429;28;11054;-73
2022/02/22 16:37:42;;;;;;;;;0.00;0.00;;;;;;;;5104191;27;8963;-74
2022/02/22 16:40:08;;;;;;;;;0.00;0.00;;;;;;;;5101928;28;8835;-71
2022/02/22 16:42:33;;;;;;;;;0.00;0.00;;;;;;;;5103150;27;8896;-72
2022/02/22 16:44:59;;;;;;;;;0.00;0.00;;;;;;;;5102265;28;8846;-75
2022/02/22 16:47:24;;;;;;;;;0.00;0.00;;;;;;;;5102149;27;8905;-73
2022/02/22 16:49:50;;;;;;;;;0.00;0.00;;;;;;;;5103525;27;8852;-72
2022/02/22 16:52:15;;;;;;;;;0.00;0.00;;;;;;;;5103757;28;8804;-72
2022/02/22 16:54:40;;;;;;;;;1.00;0.25;;;;;;;;5101902;27;8878;-72
2022/02/22 16:57:06;;;;;;;;;0.00;0.00;;;;;;;;5101453;28;11320;-72
2022/02/22 16:59:31;;;;;;;;;1.00;0.00;;;;;;;;5094418;28;11737;-73
2022/02/22 17:01:56;;;;;;;;;1.00;0.00;;;;;;;;5089501;28;8791;-73
2022/02/22 17:04:22;;;;;;;;;0.00;0.00;;;;;;;;5088073;28;8894;-74
2022/02/22 17:06:48;;;;;;;;;0.00;0.00;;;;;;;;5080301;28;8776;-74
2022/02/22 17:09:14;;;;;;;;;1.00;0.00;;;;;;;;5079107;28;12299;-76
2022/02/22 17:11:40;;;;;;;;;0.00;0.00;;;;;;;;5080795;28;9816;-78
2022/02/22 17:14:05;;;;;;;;;1.00;0.00;;;;;;;;5080298;28;11397;-77
2022/02/22 17:16:31;;;;;;;;;0.00;0.00;;;;;;;;5083026;28;8809;-77
2022/02/22 17:18:56;;;;;;;;;0.50;0.00;;;;;;;;5087506;28;8805;-75
2022/02/22 17:21:22;;;;;;;;;0.00;0.00;;;;;;;;5100623;28;8848;-75
2022/02/22 17:23:47;;;;;;;;;0.00;0.00;;;;;;;;5098655;28;9267;-75
2022/02/22 17:26:12;;;;;;;;;0.00;0.00;;;;;;;;5099236;28;8820;-74
2022/02/22 17:28:38;;;;;;;;;0.00;0.00;;;;;;;;5087168;28;8855;-77
2022/02/22 17:31:03;;;;;;;;;0.00;0.00;;;;;;;;5087856;28;8828;-76
2022/02/22 17:33:29;;;;;;;;;0.00;0.00;;;;;;;;5087397;28;8834;-76
2022/02/22 17:36:01;;;;;;;;;0.50;0.50;;;;;;;;5087950;28;8790;-76
2022/02/22 17:38:26;;;;;;;;;9.75;5.25;;;;;;;;5087674;28;10976;-77
2022/02/22 17:40:51;;;;;;;;;5.25;4.50;;;;;;;;5088508;28;11506;-77
2022/02/22 17:43:18;;;;;;;;;0.00;0.00;;;;;;;;5087063;28;11518;-76
2022/02/22 17:45:43;;;;;;;;;0.00;0.00;;;;;;;;5088951;28;11726;-77
2022/02/22 17:48:09;;;;;;;;;1.00;1.00;;;;;;;;5082341;28;11436;-78
2022/02/22 17:50:34;;;;;;;;;3.25;3.00;;;;;;;;5080455;28;9476;-82
2022/02/22 17:52:59;;;;;;;;;4.25;4.25;;;;;;;;5091878;28;11453;-80
2022/02/22 17:55:24;;;;;;;;;4.00;4.00;;;;;;;;5099304;28;11297;-81
2022/02/22 17:57:51;;;;;;;;;4.50;3.00;;;;;;;;5099021;28;8805;-82
2022/02/22 18:00:17;;;;;;;;;5.75;3.00;;;;;;;;5094170;28;11482;-81
2022/02/22 18:02:43;;;;;;;;;2.25;2.00;;;;;;;;5097923;28;11570;-78
2022/02/22 18:05:14;;;;;;;;;4.25;3.50;;;;;;;;5097105;28;10214;-80
2022/02/22 18:07:41;;;;;;;;;3.75;2.25;;;;;;;;5098257;28;11625;-80
2022/02/22 18:10:07;;;;;;;;;1.00;1.00;;;;;;;;5099439;28;12576;-76
2022/02/22 18:12:32;;;;;;;;;0.00;0.00;;;;;;;;5095274;28;11610;-78
2022/02/22 18:14:57;;;;;;;;;8.00;7.75;;;;;;;;5079073;28;8811;-77
2022/02/22 18:17:22;;;;;;;;;24.75;23.50;;;;;;;;5079258;28;11347;-78
2022/02/22 18:19:49;;;;;;;;;26.25;23.50;;;;;;;;5077052;28;24791;-76
2022/02/22 18:22:17;;;;;;;;;25.00;24.75;;;;;;;;5078690;28;8824;-77
2022/02/22 18:24:43;;;;;;;;;4.00;4.00;;;;;;;;5079186;28;12014;-77
2022/02/22 18:27:10;;;;;;;;;3.00;3.00;;;;;;;;5077638;28;22712;-77
2022/02/22 18:29:35;;;;;;;;;2.25;1.25;;;;;;;;5079762;28;11461;-77
2022/02/22 18:32:00;;;;;;;;;4.00;4.00;;;;;;;;5078667;28;11654;-77
2022/02/22 18:34:26;;;;;;;;;14.75;11.00;;;;;;;;5078296;28;11371;-77
2022/02/22 18:36:51;;;;;;;;;10.75;7.50;;;;;;;;5078006;28;22188;-78
2022/02/22 18:39:16;;;;;;;;;5.00;5.00;;;;;;;;5093265;28;21867;-77
2022/02/22 18:41:42;;;;;;;;;11.00;8.50;;;;;;;;5091599;28;22142;-75
2022/02/22 18:44:07;;;;;;;;;33.75;28.75;;;;;;;;5087459;28;22016;-76
2022/02/22 18:48:31;;;;;;;;;34.00;25.00;;;;;;;;5161275;27;1405292;-80
2022/02/22 18:50:57;;;;;;;;;34.25;29.00;;;;;;;;5197771;27;23414;-81
2022/02/22 18:53:23;;;;;;;;;30.75;28.75;;;;;;;;5198309;27;11453;-80
2022/02/22 18:55:49;;;;;;;;;24.25;21.00;;;;;;;;5198718;27;11921;-80
2022/02/22 18:58:14;;;;;;;;;24.25;19.00;;;;;;;;5198282;27;13400;-81
2022/02/22 19:00:39;;;;;;;;;18.50;17.00;;;;;;;;5179576;27;10899;-81
2022/02/22 19:03:05;;;;;;;;;11.00;11.00;;;;;;;;5179155;27;14221;-82
2022/02/22 19:05:31;;;;;;;;;33.25;27.25;;;;;;;;5198145;27;10305;-80
2022/02/22 19:07:57;;;;;;;;;11.75;10.00;;;;;;;;5175297;27;13563;-81
2022/02/22 19:10:22;;;;;;;;;12.25;10.75;;;;;;;;5187156;27;13337;-78
2022/02/22 19:12:47;;;;;;;;;10.50;9.75;;;;;;;;5186639;27;11361;-77
2022/02/22 19:15:13;;;;;;;;;11.25;9.50;;;;;;;;5185094;27;21625;-78
2022/02/22 19:17:39;;;;;;;;;9.75;8.00;;;;;;;;5185925;27;10475;-78
2022/02/22 19:20:05;;;;;;;;;11.00;8.50;;;;;;;;5186527;27;21563;-78
2022/02/22 19:22:30;;;;;;;;;9.75;9.00;;;;;;;;5187492;27;22706;-78
2022/02/22 19:24:56;;;;;;;;;13.75;11.00;;;;;;;;5166169;27;22306;-84
2022/02/22 19:27:23;;;;;;;;;10.00;10.00;;;;;;;;5164617;27;23151;-87
2022/02/22 19:29:49;;;;;;;;;11.50;9.50;;;;;;;;5188390;27;11590;-88
2022/02/22 19:32:16;;;;;;;;;9.25;9.25;;;;;;;;5182641;27;21544;-83
2022/02/22 19:34:41;;;;;;;;;9.50;9.00;;;;;;;;5176442;27;21725;-79
2022/02/22 19:37:08;;;;;;;;;15.50;10.50;;;;;;;;5176599;27;11525;-79
2022/02/22 19:39:34;;;;;;;;;15.50;13.00;;;;;;;;5176461;27;22312;-79
2022/02/22 19:42:00;;;;;;;;;14.50;12.75;;;;;;;;5177071;27;11431;-81
2022/02/22 19:44:25;;;;;;;;;14.00;12.00;;;;;;;;5191036;27;11566;-80
2022/02/22 19:46:50;;;;;;;;;17.00;14.25;;;;;;;;5178086;27;8915;-79
2022/02/22 19:49:16;;;;;;;;;14.75;13.00;;;;;;;;5198479;27;11673;-89
2022/02/22 19:51:41;;;;;;;;;15.25;13.75;;;;;;;;5178107;27;13445;-81
2022/02/22 19:54:06;;;;;;;;;14.75;13.25;;;;;;;;5177093;27;14951;-83
2022/02/22 19:56:37;;;;;;;;;17.75;15.00;;;;;;;;5186907;27;10333;-82
2022/02/22 19:59:06;;;;;;;;;12.50;12.50;;;;;;;;5178247;27;11603;-84
2022/02/22 20:01:31;;;;;;;;;14.00;13.50;;;;;;;;5172475;27;11703;-81
2022/02/22 20:03:57;;;;;;;;;14.25;12.50;;;;;;;;5144864;27;12328;-84
2022/02/22 20:06:23;;;;;;;;;19.75;16.25;;;;;;;;5158508;27;11225;-88
2022/02/22 20:08:51;;;;;;;;;18.50;17.00;;;;;;;;5163231;27;13767;-83
2022/02/22 20:11:19;;;;;;;;;15.00;13.25;;;;;;;;5183169;27;11881;-82
2022/02/22 20:13:44;;;;;;;;;17.25;13.25;;;;;;;;5163871;27;11818;-82
2022/02/22 20:21:26;;;;;;;;;15.00;12.50;;;;;;;;5151136;22;11994;-82
2022/02/22 20:23:51;;;;;;;;;14.50;10.25;;;;;;;;5120338;28;12231;-83
2022/02/22 20:26:17;;;;;;;;;7.00;7.00;;;;;;;;5101698;28;11960;-82
2022/02/22 20:28:44;;;;;;;;;15.00;13.75;;;;;;;;5119474;28;22401;-83
2022/02/22 20:31:09;;;;;;;;;13.50;13.00;;;;;;;;5120185;28;22507;-83
2022/02/22 20:33:35;;;;;;;;;13.25;13.00;;;;;;;;5120489;28;11546;-86
2022/02/22 20:36:00;;;;;;;;;12.25;11.50;;;;;;;;5120477;28;8874;-84
2022/02/22 20:38:25;;;;;;;;;13.75;10.75;;;;;;;;5121245;28;11462;-83
2022/02/22 20:40:51;;;;;;;;;12.25;11.50;;;;;;;;5120496;28;11494;-83
2022/02/22 20:43:18;;;;;;;;;14.50;10.25;;;;;;;;5120225;28;11810;-83
2022/02/22 20:45:44;;;;;;;;;9.00;9.00;;;;;;;;5120032;28;11448;-83
2022/02/22 20:48:09;;;;;;;;;11.25;10.00;;;;;;;;5119110;28;22414;-81
2022/02/22 20:50:34;;;;;;;;;11.00;10.75;;;;;;;;5118662;27;22623;-84
2022/02/22 20:53:00;;;;;;;;;11.50;10.00;;;;;;;;5119649;28;8920;-83
2022/02/22 20:55:26;;;;;;;;;15.50;9.50;;;;;;;;5119689;28;9687;-83
2022/02/22 20:57:51;;;;;;;;;14.25;12.75;;;;;;;;5119727;28;22217;-82
2022/02/22 21:00:17;;;;;;;;;9.00;9.00;;;;;;;;5101395;28;23291;-82
2022/02/22 21:02:42;;;;;;;;;11.25;9.00;;;;;;;;5119814;28;23252;-82
2022/02/22 21:05:08;;;;;;;;;11.50;11.50;;;;;;;;5120412;28;16288;-79
2022/02/22 21:07:33;;;;;;;;;12.25;12.25;;;;;;;;5119690;28;22628;-78
2022/02/22 21:10:01;;;;;;;;;13.00;11.00;;;;;;;;5119492;27;13002;-79
2022/02/22 21:12:26;;;;;;;;;14.00;13.00;;;;;;;;5119410;28;11784;-80
2022/02/22 21:14:53;;;;;;;;;13.00;13.00;;;;;;;;5119209;28;11461;-80
2022/02/22 21:17:18;;;;;;;;;13.25;12.00;;;;;;;;5119551;28;8808;-80
2022/02/22 21:19:44;;;;;;;;;16.00;13.50;;;;;;;;5119195;28;11576;-81
2022/02/22 21:22:10;;;;;;;;;18.00;16.00;;;;;;;;5119141;28;12025;-80
2022/02/22 21:24:35;;;;;;;;;19.00;15.50;;;;;;;;5120709;28;12544;-78
2022/02/22 21:27:01;;;;;;;;;10.00;8.75;;;;;;;;5119856;28;11394;-81
2022/02/22 21:29:26;;;;;;;;;16.75;12.75;;;;;;;;5120394;28;21335;-80
2022/02/22 21:31:52;;;;;;;;;14.00;12.75;;;;;;;;5119341;28;22458;-80
2022/02/22 21:34:17;;;;;;;;;17.50;14.00;;;;;;;;5119613;28;8868;-80
2022/02/22 21:36:43;;;;;;;;;14.50;13.00;;;;;;;;5119922;28;11422;-80
2022/02/22 21:39:08;;;;;;;;;12.00;12.00;;;;;;;;5119417;28;8935;-80
2022/02/22 21:41:33;;;;;;;;;12.00;12.00;;;;;;;;5119283;28;10791;-81
2022/02/22 21:43:59;;;;;;;;;13.00;11.00;;;;;;;;5100556;28;8812;-81
2022/02/22 21:46:24;;;;;;;;;16.00;12.25;;;;;;;;5119368;28;9840;-81
2022/02/22 21:48:50;;;;;;;;;13.00;13.00;;;;;;;;5099760;28;13655;-79
2022/02/22 21:51:15;;;;;;;;;13.25;12.25;;;;;;;;5119210;28;11897;-81
2022/02/22 21:53:40;;;;;;;;;8.00;6.00;;;;;;;;5119944;28;10357;-79
2022/02/22 21:56:06;;;;;;;;;12.00;10.50;;;;;;;;5119179;28;23334;-80
2022/02/22 21:58:31;;;;;;;;;9.00;9.00;;;;;;;;5119523;28;22419;-80
2022/02/22 22:00:56;;;;;;;;;10.75;10.75;;;;;;;;5119055;28;22471;-80
2022/02/22 22:03:21;;;;;;;;;15.00;11.50;;;;;;;;5118820;28;22249;-84
2022/02/22 22:05:47;;;;;;;;;10.00;10.00;;;;;;;;5119030;28;11364;-83
2022/02/22 22:08:12;;;;;;;;;17.50;12.00;;;;;;;;5118679;28;12751;-84
2022/02/22 22:10:37;;;;;;;;;9.75;9.50;;;;;;;;5118811;28;10305;-83
2022/02/22 22:13:03;;;;;;;;;11.50;9.00;;;;;;;;5117537;28;22418;-84
2022/02/22 22:15:28;;;;;;;;;10.00;9.00;;;;;;;;5118377;28;21830;-84
2022/02/22 22:17:56;;;;;;;;;12.50;9.00;;;;;;;;5118917;28;9014;-83
2022/02/22 22:20:21;;;;;;;;;13.50;12.00;;;;;;;;5101875;28;12210;-83
2022/02/22 22:22:46;;;;;;;;;13.50;12.00;;;;;;;;5119640;27;21356;-83
2022/02/22 22:25:12;;;;;;;;;12.00;5.00;;;;;;;;5119663;28;8815;-83
2022/02/22 22:27:37;;;;;;;;;9.25;9.25;;;;;;;;5118765;28;21320;-82
2022/02/22 22:30:06;;;;;;;;;15.67;13.00;;;;;;;;5100213;28;23417;-84
2022/02/22 22:32:32;;;;;;;;;12.67;12.00;;;;;;;;5117014;28;22898;-84
2022/02/22 22:34:57;;;;;;;;;9.25;8.75;;;;;;;;5117412;28;11559;-81
2022/02/22 22:37:22;;;;;;;;;11.00;9.75;;;;;;;;5118358;28;22449;-83
2022/02/22 22:39:48;;;;;;;;;10.25;8.00;;;;;;;;5118664;28;21460;-83
2022/02/22 22:42:13;;;;;;;;;9.00;8.00;;;;;;;;5118550;28;11825;-83
2022/02/22 22:44:39;;;;;;;;;9.00;9.00;;;;;;;;5118639;28;16244;-85
2022/02/22 22:47:04;;;;;;;;;11.67;11.33;;;;;;;;5099330;28;9012;-84
2022/02/22 22:49:29;;;;;;;;;11.00;11.00;;;;;;;;5116621;28;23071;-83
2022/02/22 22:51:55;;;;;;;;;10.50;10.00;;;;;;;;5116920;28;8856;-84
2022/02/22 22:54:20;;;;;;;;;13.00;10.33;;;;;;;;5118691;28;10563;-85
2022/02/22 22:56:45;;;;;;;;;11.00;10.75;;;;;;;;5099886;28;11791;-85
2022/02/22 22:59:11;;;;;;;;;8.25;8.00;;;;;;;;5119258;28;10309;-85
2022/02/22 23:01:36;;;;;;;;;14.33;9.00;;;;;;;;5119007;28;22355;-85
2022/02/22 23:04:02;;;;;;;;;10.33;10.33;;;;;;;;5118762;28;21595;-86
2022/02/22 23:14:43;;;;;;;;;9.00;8.67;;;;;;;;5117293;28;17252;-83
2022/02/22 23:17:08;;;;;;;;;8.33;8.33;;;;;;;;5100307;28;22012;-83
2022/02/22 23:19:34;;;;;;;;;7.33;7.33;;;;;;;;5117837;28;11631;-85
2022/02/22 23:22:00;;;;;;;;;8.00;8.00;;;;;;;;5120630;28;8784;-83
2022/02/22 23:24:25;;;;;;;;;9.00;8.33;;;;;;;;5120970;28;11599;-83
2022/02/22 23:26:51;;;;;;;;;15.00;11.00;;;;;;;;5119313;28;12848;-83
2022/02/22 23:29:17;;;;;;;;;6.67;6.67;;;;;;;;5118528;28;22233;-84
2022/02/22 23:31:42;;;;;;;;;9.67;9.67;;;;;;;;5118430;28;23505;-84
2022/02/22 23:34:07;;;;;;;;;12.00;11.00;;;;;;;;5120691;27;8815;-84
2022/02/22 23:36:33;;;;;;;;;12.00;9.00;;;;;;;;5103055;28;24637;-82
2022/02/22 23:38:58;;;;;;;;;4.00;4.00;;;;;;;;5122201;28;16658;-83
2022/02/22 23:41:24;;;;;;;;;9.00;7.00;;;;;;;;5122446;28;21645;-83
2022/02/22 23:43:50;;;;;;;;;11.00;8.00;;;;;;;;5122256;28;9476;-83
2022/02/22 23:46:15;;;;;;;;;11.67;11.33;;;;;;;;5122149;28;21743;-84
2022/02/22 23:48:41;;;;;;;;;8.67;8.67;;;;;;;;5124419;28;21391;-83
2022/02/22 23:51:06;;;;;;;;;10.00;8.00;;;;;;;;5122199;28;22280;-82
2022/02/22 23:53:31;;;;;;;;;7.00;7.00;;;;;;;;5122422;28;21602;-83
2022/02/22 23:55:57;;;;;;;;;8.67;8.67;;;;;;;;5102721;28;23281;-83
2022/02/22 23:58:22;;;;;;;;;8.00;7.67;;;;;;;;5121915;28;11311;-83
